Time;durP1;ratioP1;P1;durP2;ratioP2;P2;SDS_P1;SDS_P2;PMS_P1;PMS_P2;Temp;Humidity;BMP_temperature;BMP_pressure;BME280_temperature;BME280_humidity;BME280_pressure;Samples;Min_cycle;Max_cycle;Signal;HPM_P1;HPM_P2
2022/04/08 00:03:59;;;;;;;1.60;0.68;;;;;;;16.77;63.16;95364.31;10409963;28;20406;-24
2022/04/08 00:08:59;;;;;;;2.10;0.43;;;;;;;16.77;62.50;95372.72;10411868;28;20464;-23
2022/04/08 00:14:00;;;;;;;0.90;0.43;;;;;;;16.78;56.62;95379.44;10416042;28;20036;-24
2022/04/08 00:19:01;;;;;;;0.75;0.30;;;;;;;16.76;55.73;95391.25;10413815;28;20044;-23
2022/04/08 00:24:02;;;;;;;1.05;0.57;;;;;;;16.74;55.62;95401.38;10412445;28;20471;-22
2022/04/08 00:29:02;;;;;;;0.40;0.35;;;;;;;16.73;54.89;95402.25;10418137;28;20041;-22
2022/04/08 00:34:02;;;;;;;1.13;0.38;;;;;;;16.73;55.11;95409.00;10414262;28;20036;-23
2022/04/08 00:39:03;;;;;;;1.10;0.37;;;;;;;16.72;55.12;95399.75;10416255;28;20041;-23
2022/04/08 00:44:04;;;;;;;0.40;0.32;;;;;;;16.72;55.26;95414.91;10415308;28;20045;-23
2022/04/08 00:49:06;;;;;;;1.48;0.35;;;;;;;16.72;55.06;95407.34;10416848;28;20529;-23
2022/04/08 00:54:06;;;;;;;0.77;0.30;;;;;;;16.69;54.99;95411.59;10415307;28;20487;-22
2022/04/08 00:59:07;;;;;;;1.48;0.40;;;;;;;16.70;55.06;95418.31;10411514;28;20034;-23
2022/04/08 01:04:07;;;;;;;0.40;0.30;;;;;;;16.70;55.71;95416.59;10416218;28;20034;-23
2022/04/08 01:09:07;;;;;;;1.87;0.80;;;;;;;16.74;62.33;95433.41;10410554;28;20295;-22
2022/04/08 01:14:13;;;;;;;1.55;0.90;;;;;;;16.77;62.60;95435.88;10414085;28;20032;-24
2022/04/08 01:19:14;;;;;;;1.20;0.45;;;;;;;16.75;57.66;95422.44;10415106;28;20397;-23
2022/04/08 01:24:15;;;;;;;0.65;0.40;;;;;;;16.74;55.82;95419.06;10410197;28;20037;-23
2022/04/08 01:29:16;;;;;;;0.73;0.57;;;;;;;16.72;55.55;95427.56;10415115;28;20522;-22
2022/04/08 01:34:16;;;;;;;0.63;0.40;;;;;;;16.71;55.09;95428.38;10412885;28;20030;-23
2022/04/08 01:39:16;;;;;;;0.50;0.30;;;;;;;16.71;55.27;95425.03;10410008;28;20296;-23
2022/04/08 01:44:17;;;;;;;1.77;0.50;;;;;;;16.71;55.15;95430.91;10412931;28;20043;-23
2022/04/08 01:49:17;;;;;;;1.17;0.30;;;;;;;16.71;55.00;95428.38;10414824;28;20041;-23
2022/04/08 01:54:17;;;;;;;0.40;0.30;;;;;;;16.71;55.19;95437.66;10412655;28;20033;-23
2022/04/08 01:59:18;;;;;;;0.43;0.30;;;;;;;16.70;55.01;95438.53;10408743;28;20301;-23
2022/04/08 02:04:18;;;;;;;1.43;0.70;;;;;;;16.69;55.34;95446.97;10414002;28;20033;-23
2022/04/08 02:09:19;;;;;;;2.10;0.22;;;;;;;16.70;55.14;95467.16;10408132;28;20477;-23
2022/04/08 02:14:19;;;;;;;1.13;0.63;;;;;;;16.73;60.32;95459.53;10413619;28;20038;-23
2022/04/08 02:19:20;;;;;;;1.57;0.50;;;;;;;16.73;62.21;95443.53;10410810;28;20599;-24
2022/04/08 02:24:20;;;;;;;0.77;0.40;;;;;;;16.74;58.91;95441.81;10407433;28;20292;-22
2022/04/08 02:29:22;;;;;;;0.80;0.37;;;;;;;16.74;56.04;95441.00;10410466;28;20280;-23
2022/04/08 02:34:22;;;;;;;1.02;0.30;;;;;;;16.66;55.84;95427.63;10411268;28;20662;-23
2022/04/08 02:39:22;;;;;;;0.68;0.25;;;;;;;16.72;55.78;95441.84;10411557;28;20044;-24
2022/04/08 02:44:23;;;;;;;1.10;0.23;;;;;;;16.70;55.38;95439.34;10407646;28;20026;-23
2022/04/08 02:49:24;;;;;;;0.93;0.30;;;;;;;16.70;55.14;95458.75;10411230;28;20038;-24
2022/04/08 02:54:25;;;;;;;1.38;0.80;;;;;;;16.70;55.56;95439.34;10409517;28;20053;-25
2022/04/08 02:59:26;;;;;;;0.77;0.55;;;;;;;16.67;55.21;95437.69;10411830;28;20068;-22
2022/04/08 03:04:26;;;;;;;1.77;0.60;;;;;;;16.70;55.33;95441.06;10405700;28;20448;-22
2022/04/08 03:09:27;;;;;;;0.63;0.40;;;;;;;16.70;55.48;95444.41;10406158;28;20049;-22
2022/04/08 03:14:28;;;;;;;1.27;0.40;;;;;;;16.65;55.61;95442.78;10411705;28;20075;-25
2022/04/08 03:19:28;;;;;;;0.70;0.30;;;;;;;16.68;55.36;95438.53;10404595;28;20458;-22
2022/04/08 03:24:30;;;;;;;2.57;1.10;;;;;;;16.71;61.08;95455.34;10409372;28;20042;-23
2022/04/08 03:29:31;;;;;;;0.80;0.40;;;;;;;16.71;61.62;95435.13;10411307;28;20041;-22
2022/04/08 03:34:31;;;;;;;2.47;0.40;;;;;;;16.73;56.56;95444.38;10406064;28;20044;-24
2022/04/08 03:39:32;;;;;;;0.55;0.43;;;;;;;16.72;55.79;95435.13;10405313;28;20809;-23
2022/04/08 03:44:32;;;;;;;1.15;0.28;;;;;;;16.74;56.14;95438.47;10410003;28;20025;-23
2022/04/08 03:49:35;;;;;;;1.30;0.30;;;;;;;16.73;55.69;95426.69;10405167;28;20164;-23
2022/04/08 03:54:37;;;;;;;1.45;0.38;;;;;;;16.73;56.01;95424.16;10408224;28;20372;-24
2022/04/08 03:59:37;;;;;;;1.55;0.40;;;;;;;16.68;56.31;95408.22;10409183;28;20044;-23
2022/04/08 04:04:37;;;;;;;1.73;0.50;;;;;;;16.77;56.08;95428.31;10409779;28;20554;-23
2022/04/08 04:09:38;;;;;;;0.60;0.20;;;;;;;16.77;55.89;95415.66;10405716;28;20310;-23
2022/04/08 04:14:38;;;;;;;1.40;0.37;;;;;;;16.78;55.98;95432.50;10409721;28;20287;-21
2022/04/08 04:19:39;;;;;;;0.67;0.20;;;;;;;16.78;56.27;95432.50;10408649;28;20299;-23
2022/04/08 04:24:39;;;;;;;0.97;0.70;;;;;;;16.78;56.59;95417.34;10403321;28;20685;-24
2022/04/08 04:29:40;;;;;;;3.30;0.68;;;;;;;16.81;58.50;95422.38;10409728;28;20042;-23
2022/04/08 04:34:40;;;;;;;1.87;0.47;;;;;;;16.79;59.55;95414.78;10408225;28;20037;-22
2022/04/08 04:39:40;;;;;;;6.57;0.77;;;;;;;16.82;58.32;95414.75;10404434;28;20042;-24
2022/04/08 04:44:41;;;;;;;0.80;0.30;;;;;;;16.82;57.33;95431.63;10400333;28;20037;-22
2022/04/08 04:49:41;;;;;;;1.13;0.47;;;;;;;16.82;55.86;95434.97;10409330;28;20112;-22
2022/04/08 04:54:41;;;;;;;1.97;0.70;;;;;;;16.77;56.56;95417.38;10413603;28;20029;-22
2022/04/08 04:59:42;;;;;;;3.30;0.57;;;;;;;16.82;55.87;95413.91;10413781;28;20037;-24
2022/04/08 05:04:42;;;;;;;2.67;0.53;;;;;;;16.81;55.37;95402.16;10415557;28;20042;-24
2022/04/08 05:09:42;;;;;;;1.33;0.50;;;;;;;16.81;55.85;95392.03;10408218;28;20038;-24
2022/04/08 05:14:43;;;;;;;3.17;0.50;;;;;;;16.84;55.94;95391.97;10415600;28;20115;-23
2022/04/08 05:19:43;;;;;;;1.23;0.50;;;;;;;16.82;56.15;95384.41;10409387;28;20306;-23
2022/04/08 05:24:44;;;;;;;5.23;0.73;;;;;;;16.81;55.61;95386.97;10410176;28;20424;-23
2022/04/08 05:29:44;;;;;;;4.90;0.60;;;;;;;16.78;55.90;95384.47;10413509;28;20038;-23
2022/04/08 05:34:44;;;;;;;1.63;0.45;;;;;;;16.79;55.33;95388.66;10412631;28;20388;-23
2022/04/08 05:39:45;;;;;;;16.03;3.83;;;;;;;16.36;54.90;95377.47;10414166;28;20041;-23
2022/04/08 05:44:45;;;;;;;8.23;1.67;;;;;;;16.61;57.34;95372.97;10414929;28;20607;-23
2022/04/08 05:49:45;;;;;;;8.07;1.37;;;;;;;16.69;57.93;95377.03;10411217;28;20179;-22
2022/04/08 05:54:46;;;;;;;5.73;1.30;;;;;;;16.73;56.28;95372.78;10409328;28;20041;-22
2022/04/08 05:59:47;;;;;;;3.60;0.70;;;;;;;16.73;56.87;95368.56;10414373;28;20044;-23
2022/04/08 06:04:47;;;;;;;3.35;0.65;;;;;;;16.75;56.23;95369.38;10412673;28;20039;-22
2022/04/08 06:09:47;;;;;;;4.27;1.30;;;;;;;16.74;56.66;95360.13;10408699;28;20385;-23
2022/04/08 06:14:48;;;;;;;2.17;0.80;;;;;;;16.76;56.54;95353.34;10413498;28;20084;-23
2022/04/08 06:19:50;;;;;;;4.72;0.80;;;;;;;16.77;56.06;95352.50;10410840;28;20530;-23
2022/04/08 06:24:50;;;;;;;3.13;0.93;;;;;;;16.76;56.23;95353.34;10407525;28;21147;-22
2022/04/08 06:29:51;;;;;;;1.33;0.77;;;;;;;16.77;56.81;95347.44;10411720;28;20049;-22
2022/04/08 06:34:51;;;;;;;1.83;0.60;;;;;;;16.76;55.78;95335.66;10412873;28;20021;-23
2022/04/08 06:39:51;;;;;;;2.60;0.77;;;;;;;16.75;56.90;95322.19;10409230;28;20502;-24
2022/04/08 06:44:52;;;;;;;2.10;0.80;;;;;;;16.74;58.78;95312.13;10412079;28;20041;-24
2022/04/08 06:49:53;;;;;;;1.33;0.60;;;;;;;16.75;59.17;95316.31;10408386;28;20037;-24
2022/04/08 06:54:53;;;;;;;1.10;0.70;;;;;;;16.76;58.65;95310.38;10410801;28;20025;-22
2022/04/08 06:59:54;;;;;;;0.90;0.45;;;;;;;16.77;57.19;95304.47;10410626;28;20030;-23
2022/04/08 07:04:54;;;;;;;3.23;0.80;;;;;;;16.76;57.12;95290.19;10411478;28;20120;-23
2022/04/08 07:09:57;;;;;;;1.80;0.53;;;;;;;16.75;56.97;95281.75;10405881;28;20033;-22
2022/04/08 07:14:57;;;;;;;1.17;0.55;;;;;;;16.73;56.98;95280.13;10410834;28;20033;-23
2022/04/08 07:19:58;;;;;;;1.27;0.43;;;;;;;16.55;55.97;95270.28;10402449;28;20025;-22
2022/04/08 07:24:58;;;;;;;2.50;0.80;;;;;;;16.49;55.63;95262.81;10401906;28;20345;-23
2022/04/08 07:29:58;;;;;;;2.33;0.40;;;;;;;16.62;55.56;95249.13;10404147;28;20044;-23
2022/04/08 07:34:59;;;;;;;2.37;0.50;;;;;;;16.64;56.09;95244.91;10404531;28;20036;-23
2022/04/08 07:40:00;;;;;;;2.07;0.60;;;;;;;16.63;55.87;95237.34;10404638;28;20037;-24
2022/04/08 07:45:01;;;;;;;0.50;0.40;;;;;;;16.67;56.01;95224.63;10400001;28;20365;-22
2022/04/08 07:50:10;;;;;;;0.77;0.50;;;;;;;16.68;56.09;95218.72;10404477;28;20091;-24
2022/04/08 07:55:11;;;;;;;2.20;0.70;;;;;;;16.73;59.36;95208.53;10409188;28;20025;-23
2022/04/08 08:00:17;;;;;;;2.47;0.68;;;;;;;16.75;59.91;95200.06;10411525;28;20044;-22
2022/04/08 08:05:20;;;;;;;1.75;0.63;;;;;;;16.74;57.27;95178.19;10409953;28;20041;-23
2022/04/08 08:10:30;;;;;;;2.72;0.73;;;;;;;16.73;56.69;95176.53;10408490;28;20567;-22
2022/04/08 08:15:32;;;;;;;1.17;0.43;;;;;;;16.72;55.62;95144.53;10404433;28;20380;-22
2022/04/08 08:20:33;;;;;;;1.90;0.40;;;;;;;16.71;55.51;95127.69;10402511;28;20458;-22
2022/04/08 08:25:33;;;;;;;0.38;0.30;;;;;;;16.71;55.80;95116.75;10408271;28;20086;-23
2022/04/08 08:30:34;;;;;;;2.67;0.60;;;;;;;16.68;55.83;95097.44;10409031;28;20052;-23
2022/04/08 08:35:35;;;;;;;0.90;0.50;;;;;;;16.62;56.09;95079.84;10412095;28;20038;-23
2022/04/08 08:40:35;;;;;;;0.70;0.40;;;;;;;16.67;55.82;95065.47;10408370;28;20029;-23
2022/04/08 08:45:37;;;;;;;0.97;0.40;;;;;;;16.66;55.88;95051.16;10404670;28;20285;-24
2022/04/08 08:50:39;;;;;;;1.98;0.82;;;;;;;16.65;55.74;95041.91;10413163;28;20037;-23
2022/04/08 08:55:39;;;;;;;1.33;0.40;;;;;;;16.68;55.40;95026.69;10413587;28;20042;-22
2022/04/08 09:00:40;;;;;;;0.77;0.40;;;;;;;16.69;56.77;95017.44;10416954;28;20522;-23
2022/04/08 09:05:42;;;;;;;1.90;0.70;;;;;;;16.74;59.69;94991.22;10415695;28;20040;-22
2022/04/08 09:10:45;;;;;;;2.60;0.73;;;;;;;16.77;58.71;94997.91;10409295;28;20300;-23
2022/04/08 09:15:55;;;;;;;1.20;0.50;;;;;;;16.77;56.36;94981.88;10409237;28;20037;-23
2022/04/08 09:20:57;;;;;;;1.23;0.43;;;;;;;16.69;56.45;94977.00;10415380;28;20033;-24
2022/04/08 09:26:00;;;;;;;0.82;0.80;;;;;;;16.74;57.24;94991.22;10415041;28;20120;-23
2022/04/08 09:31:02;;;;;;;2.67;0.60;;;;;;;16.67;56.05;94971.97;10408661;28;20033;-22
2022/04/08 09:36:03;;;;;;;3.20;0.50;;;;;;;16.73;56.08;94969.34;10413819;28;20040;-22
2022/04/08 09:41:10;;;;;;;0.60;0.40;;;;;;;16.73;56.36;94980.25;10411508;28;20036;-23
2022/04/08 09:46:13;;;;;;;0.82;0.40;;;;;;;16.78;56.04;94965.00;10412541;28;20033;-23
2022/04/08 09:51:20;;;;;;;4.53;0.80;;;;;;;16.66;57.18;94955.16;10413448;28;20037;-24
2022/04/08 09:56:21;;;;;;;;;;;;;;;16.74;55.77;94955.84;10410584;28;20446;-23
2022/04/08 10:01:23;;;;;;;2.03;0.40;;;;;;;16.71;55.91;94924.75;10411780;28;19980;-23
2022/04/08 10:06:24;;;;;;;0.70;0.40;;;;;;;16.74;55.84;94928.03;10404038;28;20132;-23
2022/04/08 10:11:33;;;;;;;6.15;1.80;;;;;;;16.78;59.97;94927.09;10406778;28;20048;-22
2022/04/08 10:16:38;;;;;;;1.90;0.80;;;;;;;16.81;60.33;94895.00;10406467;28;20116;-23
2022/04/08 10:21:40;;;;;;;3.72;0.70;;;;;;;16.78;57.19;94881.59;10404432;28;20042;-22
2022/04/08 10:27:08;;;;;;;0.95;0.50;;;;;;;16.78;56.08;94894.25;10408814;28;20057;-22
2022/04/08 10:32:15;;;;;;;2.40;0.52;;;;;;;16.78;56.48;94879.09;10407785;28;20069;-23
2022/04/08 10:37:16;;;;;;;0.52;0.20;;;;;;;16.78;56.07;94894.25;10408138;28;20030;-23
2022/04/08 10:42:21;;;;;;;1.17;0.57;;;;;;;16.83;55.68;94872.25;10412311;28;20033;-23
2022/04/08 10:47:23;;;;;;;2.38;1.10;;;;;;;16.82;56.00;94863.00;10410380;28;20099;-23
2022/04/08 10:52:26;;;;;;;4.95;1.10;;;;;;;16.80;56.26;94844.50;10411170;28;20052;-23
2022/04/08 10:57:36;;;;;;;1.65;0.52;;;;;;;16.80;56.66;94845.34;10408879;28;20021;-23
2022/04/08 11:02:43;;;;;;;1.90;0.40;;;;;;;16.81;56.88;94843.66;10411376;28;20407;-23
2022/04/08 11:07:50;;;;;;;2.40;0.80;;;;;;;16.79;56.33;94848.72;10405978;28;20029;-22
2022/04/08 11:12:53;;;;;;;1.20;0.60;;;;;;;16.84;55.70;94830.94;10411424;28;20081;-22
2022/04/08 11:17:53;;;;;;;4.03;0.93;;;;;;;16.84;59.37;94815.78;10409522;28;20033;-22
2022/04/08 11:22:55;;;;;;;1.60;0.70;;;;;;;16.86;60.92;94844.34;10405750;28;20037;-23
2022/04/08 11:28:07;;;;;;;2.10;0.63;;;;;;;16.85;59.89;94817.44;10410457;28;20404;-25
2022/04/08 11:33:16;;;;;;;2.35;0.68;;;;;;;16.84;56.99;94833.47;10405964;28;20037;-24
2022/04/08 11:38:18;;;;;;;1.42;0.60;;;;;;;16.79;56.48;94840.31;10407606;28;20044;-23
2022/04/08 11:43:20;;;;;;;2.85;0.88;;;;;;;16.79;56.91;94832.72;10398755;28;20041;-23
2022/04/08 11:48:23;;;;;;;1.88;0.60;;;;;;;16.80;56.30;94844.50;10407074;28;20033;-22
2022/04/08 11:53:24;;;;;;;1.65;0.80;;;;;;;16.82;57.06;94830.16;10411755;28;20517;-23
2022/04/08 11:58:25;;;;;;;2.85;0.70;;;;;;;16.76;56.71;94860.59;10411173;28;20044;-23
2022/04/08 12:03:30;;;;;;;1.02;0.52;;;;;;;16.79;56.16;94900.94;10409775;28;20036;-23
2022/04/08 12:08:30;;;;;;;2.75;0.57;;;;;;;16.79;55.94;94852.94;10420859;28;20377;-22
2022/04/08 12:13:33;;;;;;;0.90;0.63;;;;;;;16.80;55.64;94852.06;10417936;28;20037;-26
2022/04/08 12:18:34;;;;;;;1.10;0.40;;;;;;;16.82;55.97;94918.59;10409493;28;20291;-23
2022/04/08 12:23:34;;;;;;;1.50;0.57;;;;;;;16.81;55.56;94909.34;10404482;28;20033;-23
2022/04/08 12:28:35;;;;;;;14.30;1.40;;;;;;;16.82;60.23;94880.69;10415716;28;20366;-23
2022/04/08 12:33:36;;;;;;;7.65;1.20;;;;;;;16.86;61.35;94927.75;10411544;28;20864;-23
2022/04/08 12:38:40;;;;;;;3.40;0.40;;;;;;;16.82;56.74;94863.00;10419169;28;20114;-23
2022/04/08 12:43:40;;;;;;;2.20;0.57;;;;;;;16.82;56.63;94898.38;10417290;28;20025;-23
2022/04/08 12:48:41;;;;;;;3.83;0.67;;;;;;;16.78;56.02;94890.03;10410842;28;20029;-22
2022/04/08 12:53:41;;;;;;;5.07;0.80;;;;;;;16.73;55.79;94868.28;10415467;28;20111;-22
2022/04/08 12:58:41;;;;;;;0.90;0.40;;;;;;;16.78;55.90;94879.09;10416420;28;20029;-23
2022/04/08 13:03:42;;;;;;;0.90;0.50;;;;;;;16.78;56.00;94907.72;10412337;28;20038;-23
2022/04/08 13:08:42;;;;;;;1.17;0.40;;;;;;;16.76;55.92;94898.50;10414758;28;20034;-22
2022/04/08 13:13:43;;;;;;;0.67;0.53;;;;;;;16.76;55.97;94853.03;10414924;28;20100;-24
2022/04/08 13:18:43;;;;;;;1.08;0.40;;;;;;;16.77;55.77;94831.13;10407086;28;20404;-23
2022/04/08 13:23:43;;;;;;;2.03;0.57;;;;;;;16.67;55.88;94778.25;10410183;28;20043;-22
2022/04/08 13:28:44;;;;;;;1.43;0.43;;;;;;;16.78;55.76;94775.47;10415258;28;20785;-24
2022/04/08 13:33:44;;;;;;;1.07;0.57;;;;;;;16.79;58.69;94756.94;10412230;28;20495;-24
2022/04/08 13:38:44;;;;;;;2.70;0.80;;;;;;;16.84;60.55;94755.13;10410505;28;20140;-24
2022/04/08 13:43:46;;;;;;;1.43;0.67;;;;;;;16.85;59.68;94752.56;10414374;28;20087;-24
2022/04/08 13:48:46;;;;;;;2.05;0.70;;;;;;;16.76;56.81;94759.53;10406540;28;20038;-23
2022/04/08 13:53:46;;;;;;;3.73;0.87;;;;;;;16.81;56.64;94800.69;10412890;28;20060;-22
2022/04/08 13:58:47;;;;;;;2.23;0.67;;;;;;;16.79;56.04;94784.72;10412583;28;20308;-23
2022/04/08 14:03:47;;;;;;;2.10;0.50;;;;;;;16.79;55.80;94799.88;10410486;28;20037;-23
2022/04/08 14:08:47;;;;;;;1.13;0.40;;;;;;;16.78;55.83;94848.75;10412566;28;20581;-23
2022/04/08 14:13:48;;;;;;;0.77;0.30;;;;;;;16.78;55.66;94793.16;10402589;28;20034;-23
2022/04/08 14:18:48;;;;;;;0.90;0.37;;;;;;;16.78;56.04;94801.59;10404448;28;20037;-22
2022/04/08 14:23:48;;;;;;;3.10;0.40;;;;;;;16.78;55.96;94770.44;10410818;28;20745;-23
2022/04/08 14:28:49;;;;;;;1.07;0.40;;;;;;;16.80;56.27;94814.16;10407585;28;20495;-22
2022/04/08 14:33:50;;;;;;;1.13;0.53;;;;;;;16.76;55.68;94807.53;10411111;28;20029;-22
2022/04/08 14:38:50;;;;;;;3.13;0.43;;;;;;;16.77;55.87;94810.03;10411352;28;20041;-24
2022/04/08 14:43:51;;;;;;;4.67;0.70;;;;;;;16.82;59.92;94809.94;10403468;28;20454;-23
2022/04/08 14:48:51;;;;;;;4.60;0.60;;;;;;;16.83;60.82;94788.84;10407930;28;20377;-23
2022/04/08 14:53:51;;;;;;;1.93;0.70;;;;;;;16.83;58.32;94766.09;10409578;28;20128;-24
2022/04/08 14:58:52;;;;;;;0.47;0.37;;;;;;;16.82;56.10;94784.66;10412152;28;20083;-23
2022/04/08 15:03:52;;;;;;;2.05;0.40;;;;;;;16.81;55.97;94755.22;10409991;28;20033;-22
2022/04/08 15:08:53;;;;;;;0.30;0.30;;;;;;;16.81;55.73;94755.22;10406598;28;20033;-23
2022/04/08 15:13:53;;;;;;;1.57;0.40;;;;;;;16.81;55.76;94740.88;10409721;28;20039;-22
2022/04/08 15:18:54;;;;;;;2.00;0.50;;;;;;;16.80;55.50;94763.63;10410602;28;20029;-22
2022/04/08 15:23:57;;;;;;;1.52;0.30;;;;;;;16.78;55.56;94748.53;10402662;28;20025;-23
2022/04/08 15:28:58;;;;;;;3.30;0.30;;;;;;;16.77;55.76;94751.09;10410895;28;20073;-22
2022/04/08 15:33:58;;;;;;;1.40;0.30;;;;;;;16.78;55.94;94748.53;10408251;28;20541;-22
2022/04/08 15:38:59;;;;;;;4.37;0.30;;;;;;;16.81;55.94;94785.53;10410780;28;20288;-23
2022/04/08 15:43:59;;;;;;;3.47;0.50;;;;;;;16.81;55.77;94760.28;10409848;28;20758;-22
2022/04/08 15:49:02;;;;;;;0.40;0.32;;;;;;;16.81;55.52;94755.22;10402907;28;20050;-23
2022/04/08 15:54:03;;;;;;;4.25;0.73;;;;;;;16.88;60.06;94792.06;10407956;28;20136;-23
2022/04/08 15:59:05;;;;;;;4.18;0.80;;;;;;;16.86;60.62;94755.91;10410681;28;20412;-23
2022/04/08 16:04:05;;;;;;;1.25;0.52;;;;;;;16.88;56.30;94785.34;10409713;28;20199;-24
2022/04/08 16:09:05;;;;;;;3.25;0.73;;;;;;;16.77;55.93;94768.78;10401459;28;20068;-22
2022/04/08 16:14:06;;;;;;;1.80;0.40;;;;;;;16.83;55.72;94793.91;10409999;28;20041;-24
2022/04/08 16:19:07;;;;;;;4.10;0.35;;;;;;;16.84;55.70;94796.38;10402702;28;20045;-24
2022/04/08 16:24:07;;;;;;;1.00;0.40;;;;;;;16.82;55.91;94794.78;10395783;28;20038;-23
2022/04/08 16:29:08;;;;;;;1.17;0.50;;;;;;;16.85;55.22;94771.94;10407047;28;20051;-21
2022/04/08 16:34:09;;;;;;;4.22;0.73;;;;;;;16.86;55.75;94743.28;10402359;28;20104;-21
2022/04/08 16:39:09;;;;;;;2.73;0.50;;;;;;;16.79;56.52;94726.59;10398270;28;20124;-22
2022/04/08 16:44:10;;;;;;;2.67;0.45;;;;;;;16.81;56.32;94737.53;10406542;28;20797;-22
2022/04/08 16:49:10;;;;;;;1.67;0.27;;;;;;;16.81;56.76;94717.31;10409779;28;20408;-21
2022/04/08 16:54:12;;;;;;;1.63;0.50;;;;;;;16.81;56.92;94719.84;10408287;28;20026;-22
2022/04/08 16:59:12;;;;;;;3.63;0.70;;;;;;;16.87;58.85;94704.50;10402942;28;20427;-21
2022/04/08 17:04:12;;;;;;;5.20;0.83;;;;;;;16.92;60.82;94712.81;10411304;28;20048;-22
2022/04/08 17:09:13;;;;;;;4.60;1.43;;;;;;;16.96;60.35;94719.44;10401129;28;20055;-20
2022/04/08 17:14:13;;;;;;;1.50;0.50;;;;;;;16.90;57.71;94679.16;10414610;28;20041;-20
2022/04/08 17:19:13;;;;;;;1.70;0.40;;;;;;;16.90;56.08;94664.00;10406720;28;20509;-22
2022/04/08 17:24:15;;;;;;;1.30;0.43;;;;;;;16.87;56.12;94659.00;10405661;28;20045;-23
2022/04/08 17:29:15;;;;;;;0.63;0.50;;;;;;;16.87;55.80;94676.69;10406427;28;20056;-22
2022/04/08 17:34:16;;;;;;;0.93;0.30;;;;;;;16.88;55.96;94671.63;10413128;28;20025;-20
2022/04/08 17:39:16;;;;;;;2.67;0.40;;;;;;;16.85;56.28;94636.34;10409002;28;20025;-21
2022/04/08 17:44:17;;;;;;;1.60;0.25;;;;;;;16.82;55.63;94630.53;10408604;28;20029;-22
2022/04/08 17:49:18;;;;;;;8.02;0.40;;;;;;;16.86;55.92;94647.25;10410457;28;20037;-22
2022/04/08 17:54:18;;;;;;;1.65;0.40;;;;;;;16.85;55.59;94665.81;10410892;28;20522;-22
2022/04/08 17:59:18;;;;;;;2.00;0.50;;;;;;;16.82;55.79;94660.84;10407492;28;20033;-23
2022/04/08 18:04:19;;;;;;;1.13;0.40;;;;;;;16.84;56.60;94638.88;10410982;28;20099;-21
2022/04/08 18:09:19;;;;;;;5.53;1.40;;;;;;;16.91;59.54;94635.34;10410505;28;20500;-22
2022/04/08 18:14:20;;;;;;;4.00;0.53;;;;;;;16.96;60.73;94634.34;10410313;28;20060;-22
2022/04/08 18:19:20;;;;;;;1.60;0.50;;;;;;;16.82;56.80;94600.22;10405160;28;20458;-22
2022/04/08 18:24:21;;;;;;;1.37;0.23;;;;;;;16.92;56.47;94591.50;10405986;28;20484;-22
2022/04/08 18:29:21;;;;;;;1.97;0.40;;;;;;;16.89;56.32;94557.03;10401119;28;20300;-21
2022/04/08 18:34:22;;;;;;;1.58;0.40;;;;;;;16.87;56.58;94583.19;10406110;28;20033;-22
2022/04/08 18:39:22;;;;;;;2.55;0.40;;;;;;;16.86;56.49;94584.91;10400358;28;20056;-23
2022/04/08 18:44:25;;;;;;;0.77;0.30;;;;;;;16.87;56.48;94578.16;10408884;28;20037;-21
2022/04/08 18:49:25;;;;;;;1.17;0.50;;;;;;;16.85;56.44;94580.75;10404476;28;20320;-21
2022/04/08 18:54:26;;;;;;;1.47;0.37;;;;;;;16.82;55.88;94580.00;10397693;28;20030;-22
2022/04/08 18:59:26;;;;;;;2.20;0.70;;;;;;;16.82;56.25;94570.69;10405180;28;20138;-23
2022/04/08 19:04:31;;;;;;;4.70;0.60;;;;;;;16.85;56.34;94574.84;10399701;28;20408;-24
2022/04/08 19:09:34;;;;;;;1.35;0.80;;;;;;;16.86;56.70;94561.34;10402855;28;20029;-21
2022/04/08 19:14:34;;;;;;;4.18;0.70;;;;;;;16.89;58.57;94551.16;10398076;28;20032;-23
2022/04/08 19:19:35;;;;;;;3.53;0.60;;;;;;;16.97;60.10;94534.06;10399082;28;20033;-23
2022/04/08 19:24:35;;;;;;;2.43;0.87;;;;;;;16.97;57.49;94518.88;10397623;28;20044;-21
2022/04/08 19:29:36;;;;;;;0.97;0.53;;;;;;;16.94;56.44;94502.13;10407352;28;20110;-21
2022/04/08 19:34:37;;;;;;;0.98;0.40;;;;;;;16.90;55.76;94512.38;10393876;28;20320;-21
2022/04/08 19:39:37;;;;;;;1.20;0.43;;;;;;;16.92;55.37;94505.56;10395744;28;20033;-22
2022/04/08 19:44:37;;;;;;;1.03;0.30;;;;;;;16.90;55.77;94517.44;10406605;28;20029;-22
2022/04/08 19:49:38;;;;;;;1.30;0.43;;;;;;;16.90;56.32;94515.72;10402283;28;20547;-22
2022/04/08 19:54:38;;;;;;;0.63;0.47;;;;;;;16.69;56.39;94497.81;10399899;28;20034;-22
2022/04/08 19:59:39;;;;;;;2.93;0.73;;;;;;;16.89;56.83;94515.78;10391033;28;20790;-22
2022/04/08 20:04:39;;;;;;;1.77;0.50;;;;;;;16.90;57.02;94502.28;10398942;28;20447;-21
2022/04/08 20:09:39;;;;;;;1.47;0.50;;;;;;;16.89;56.54;94485.47;10398942;28;20504;-22
2022/04/08 20:14:40;;;;;;;2.37;0.50;;;;;;;16.89;56.93;94503.16;10397102;28;20504;-23
2022/04/08 20:19:40;;;;;;;2.40;0.40;;;;;;;16.92;56.28;94485.34;10403769;28;20284;-22
2022/04/08 20:24:42;;;;;;;1.90;0.60;;;;;;;16.97;59.94;94489.41;10402641;28;20035;-22
2022/04/08 20:29:42;;;;;;;1.60;0.63;;;;;;;17.02;60.41;94499.38;10409115;28;20307;-23
2022/04/08 20:34:43;;;;;;;1.05;0.40;;;;;;;16.99;56.43;94494.41;10405919;28;20032;-22
2022/04/08 20:39:44;;;;;;;4.28;0.57;;;;;;;16.94;57.20;94473.50;10408074;28;20079;-24
2022/04/08 20:44:46;;;;;;;1.63;0.63;;;;;;;16.92;56.33;94455.03;10417785;28;20408;-22
2022/04/08 20:49:47;;;;;;;0.95;0.30;;;;;;;16.93;55.78;94492.06;10403803;28;20045;-21
2022/04/08 20:54:47;;;;;;;1.45;0.45;;;;;;;16.73;55.97;94474.16;10405823;28;20067;-22
2022/04/08 20:59:48;;;;;;;3.03;0.53;;;;;;;16.91;55.56;94488.75;10413662;28;20034;-22
2022/04/08 21:04:50;;;;;;;2.20;0.37;;;;;;;16.90;56.49;94522.50;10408489;28;20303;-22
2022/04/08 21:09:50;;;;;;;0.85;0.60;;;;;;;16.93;55.73;94567.88;10408032;28;20129;-22
2022/04/08 21:14:51;;;;;;;0.33;0.30;;;;;;;16.88;55.28;94592.44;10410229;28;20033;-21
2022/04/08 21:19:51;;;;;;;1.25;0.63;;;;;;;16.93;55.33;94594.00;10406821;28;20299;-22
2022/04/08 21:24:52;;;;;;;0.55;0.30;;;;;;;16.92;55.23;94566.22;10408841;28;20072;-22
2022/04/08 21:29:52;;;;;;;7.22;0.88;;;;;;;16.97;60.71;94610.72;10414804;28;20037;-23
2022/04/08 21:34:53;;;;;;;5.25;0.98;;;;;;;17.03;62.19;94534.72;10407604;28;20076;-23
2022/04/08 21:39:53;;;;;;;3.10;0.73;;;;;;;17.02;61.58;94603.84;10408750;28;20029;-22
2022/04/08 21:44:54;;;;;;;2.03;0.55;;;;;;;16.97;57.60;94560.16;10411663;28;20288;-22
2022/04/08 21:49:54;;;;;;;1.17;0.33;;;;;;;16.94;56.82;94580.47;10406636;28;20056;-22
2022/04/08 21:54:54;;;;;;;2.40;0.43;;;;;;;16.93;56.11;94576.31;10410951;28;20288;-23
2022/04/08 21:59:56;;;;;;;1.00;0.40;;;;;;;16.92;56.15;94540.97;10410952;28;20037;-22
2022/04/08 22:04:56;;;;;;;0.50;0.30;;;;;;;16.91;56.26;94544.34;10406477;28;20121;-22
2022/04/08 22:09:57;;;;;;;1.87;0.40;;;;;;;16.84;56.27;94589.16;10406906;28;20036;-23
2022/04/08 22:14:57;;;;;;;0.45;0.28;;;;;;;16.92;56.59;94606.66;10410478;28;20037;-21
2022/04/08 22:19:58;;;;;;;1.37;0.40;;;;;;;16.90;56.32;94614.28;10411692;28;20017;-21
2022/04/08 22:24:58;;;;;;;2.07;0.50;;;;;;;16.90;56.19;94626.91;10415222;28;20501;-21
2022/04/08 22:29:58;;;;;;;0.80;0.40;;;;;;;16.89;55.98;94626.97;10410887;28;20060;-21
2022/04/08 22:34:59;;;;;;;1.05;0.30;;;;;;;16.88;56.17;94636.25;10406901;28;20040;-21
2022/04/08 22:39:59;;;;;;;1.40;1.10;;;;;;;16.95;62.58;94621.72;10406867;28;20025;-22
2022/04/08 22:45:00;;;;;;;1.03;0.70;;;;;;;17.02;62.37;94643.44;10407879;28;20036;-23
2022/04/08 22:50:01;;;;;;;4.03;0.60;;;;;;;16.98;60.57;94627.53;10410770;28;20067;-23
2022/04/08 22:55:03;;;;;;;0.80;0.40;;;;;;;16.94;57.25;94749.81;10405566;28;20448;-22
2022/04/08 23:00:07;;;;;;;0.98;0.43;;;;;;;16.92;56.09;94801.25;10409292;28;20410;-23
2022/04/08 23:05:08;;;;;;;0.98;0.38;;;;;;;16.91;55.65;94845.09;10407609;28;20112;-22
2022/04/08 23:10:09;;;;;;;0.25;0.20;;;;;;;16.90;55.30;94883.88;10407082;28;20119;-23
2022/04/08 23:15:09;;;;;;;0.90;0.30;;;;;;;16.90;55.31;94906.63;10406730;28;20460;-21
2022/04/08 23:20:10;;;;;;;1.42;0.30;;;;;;;16.90;55.48;94942.81;10407198;28;20341;-22